createdAt,value
2022-08-16T00:06:15.615Z,58.00
2022-08-16T00:08:42.120Z,57.76
2022-08-16T00:11:15.362Z,58.06
2022-08-16T00:13:43.229Z,58.00
2022-08-16T00:17:00.988Z,57.51
2022-08-16T00:19:06.291Z,57.67
2022-08-16T00:21:33.377Z,57.52
2022-08-16T00:24:00.179Z,57.68
2022-08-16T00:26:35.510Z,57.92
2022-08-16T00:29:16.037Z,57.49
2022-08-16T00:32:01.017Z,57.73
2022-08-16T00:34:43.744Z,57.61
2022-08-16T00:37:20.495Z,57.88
2022-08-16T00:39:58.631Z,58.26
2022-08-16T00:42:31.701Z,58.23
2022-08-16T00:45:36.532Z,58.00
2022-08-16T00:48:28.672Z,58.32
2022-08-16T00:50:55.554Z,58.26
2022-08-16T00:53:22.933Z,58.00
2022-08-16T00:55:52.776Z,57.95
2022-08-16T00:58:34.650Z,58.27
2022-08-16T01:01:02.823Z,57.91
2022-08-16T01:03:31.685Z,58.05
2022-08-16T01:06:40.460Z,58.43
2022-08-16T01:08:52.171Z,58.20
2022-08-16T01:11:19.586Z,58.41
2022-08-16T01:13:47.092Z,58.40
2022-08-16T01:16:20.901Z,58.19
2022-08-16T01:18:59.353Z,58.23
2022-08-16T01:21:33.720Z,58.43
2022-08-16T01:24:44.578Z,58.03
2022-08-16T01:27:44.639Z,58.10
2022-08-16T01:30:26.220Z,58.56
2022-08-16T01:33:02.030Z,58.23
2022-08-16T01:35:44.724Z,58.06
2022-08-16T01:38:36.010Z,58.27
2022-08-16T01:41:08.032Z,57.99
2022-08-16T01:43:37.034Z,57.85
2022-08-16T01:46:30.103Z,58.36
2022-08-16T01:49:12.199Z,58.00
2022-08-16T01:51:43.670Z,58.37
2022-08-16T01:54:13.250Z,58.42
2022-08-16T01:56:42.037Z,58.89
2022-08-16T01:59:15.720Z,59.10
2022-08-16T02:01:44.492Z,58.97
2022-08-16T02:04:48.746Z,59.10
2022-08-16T02:07:11.180Z,59.16
2022-08-16T02:09:38.933Z,59.37
2022-08-16T02:12:43.612Z,59.23
2022-08-16T02:14:53.610Z,59.33
2022-08-16T02:17:20.203Z,59.32
2022-08-16T02:19:58.970Z,59.43
2022-08-16T02:22:35.733Z,59.54
2022-08-16T02:25:14.669Z,59.12
2022-08-16T02:27:43.888Z,59.05
2022-08-16T02:30:37.014Z,58.97
2022-08-16T02:33:07.519Z,58.77
2022-08-16T02:35:35.144Z,58.67
2022-08-16T02:38:21.366Z,58.27
2022-08-16T02:40:48.340Z,58.40
2022-08-16T02:43:16.044Z,58.17
2022-08-16T02:45:42.613Z,58.52
2022-08-16T02:48:29.868Z,58.33
2022-08-16T02:51:06.359Z,58.45
2022-08-16T02:53:40.205Z,58.33
2022-08-16T02:56:09.894Z,58.42
2022-08-16T02:58:37.055Z,58.32
2022-08-16T03:01:03.763Z,58.09
2022-08-16T03:04:39.498Z,57.91
2022-08-16T03:06:39.057Z,58.24
2022-08-16T03:09:13.062Z,58.40
2022-08-16T03:11:41.085Z,58.16
2022-08-16T03:14:08.476Z,58.55
2022-08-16T03:16:39.021Z,58.21
2022-08-16T03:19:09.387Z,58.31
2022-08-16T03:21:37.382Z,58.74
2022-08-16T03:24:06.086Z,58.38
2022-08-16T03:26:52.626Z,58.62
2022-08-16T03:29:19.129Z,58.66
2022-08-16T03:31:45.663Z,58.36
2022-08-16T03:34:19.170Z,58.15
2022-08-16T03:36:47.389Z,58.12
2022-08-16T03:39:15.077Z,58.40
2022-08-16T03:41:50.043Z,58.23
2022-08-16T03:44:43.635Z,58.00
2022-08-16T03:47:04.068Z,58.13
2022-08-16T03:49:36.700Z,58.31
2022-08-16T03:52:04.148Z,58.08
2022-08-16T03:54:30.687Z,58.56
2022-08-16T03:56:58.597Z,58.44
2022-08-16T03:59:25.708Z,58.61
2022-08-16T04:01:56.225Z,58.91
2022-08-16T04:04:25.094Z,58.27
2022-08-16T04:07:03.390Z,57.87
2022-08-16T04:09:35.543Z,57.71
2022-08-16T04:12:11.159Z,57.27
2022-08-16T04:14:51.691Z,57.55
2022-08-16T04:17:18.431Z,57.15
2022-08-16T04:19:46.704Z,57.34
2022-08-16T04:22:13.765Z,57.27
2022-08-16T04:24:54.187Z,57.44
2022-08-16T04:27:21.306Z,57.30
2022-08-16T04:29:47.883Z,57.13
2022-08-16T04:32:19.617Z,57.03
2022-08-16T04:34:46.927Z,57.23
2022-08-16T04:37:14.276Z,57.00
2022-08-16T04:39:46.701Z,56.76
2022-08-16T04:42:15.110Z,56.83
2022-08-16T04:44:54.140Z,57.19
2022-08-16T04:47:24.736Z,57.33
2022-08-16T04:49:52.753Z,57.12
2022-08-16T04:52:32.641Z,56.75
2022-08-16T04:55:37.644Z,57.10
2022-08-16T04:58:44.946Z,56.94
2022-08-16T05:00:52.873Z,56.96
2022-08-16T05:03:19.666Z,56.34
2022-08-16T05:05:59.499Z,56.27
2022-08-16T05:08:31.751Z,56.41
2022-08-16T05:11:05.414Z,56.31
2022-08-16T05:13:41.050Z,56.39
2022-08-16T05:16:30.298Z,56.43
2022-08-16T05:18:59.516Z,55.99
2022-08-16T05:21:28.384Z,55.90
2022-08-16T05:24:06.076Z,56.32
2022-08-16T05:26:34.513Z,55.82
2022-08-16T05:29:04.428Z,56.12
2022-08-16T05:31:31.565Z,56.53
2022-08-16T05:34:00.086Z,56.41
2022-08-16T05:36:33.757Z,56.73
2022-08-16T05:39:08.867Z,56.40
2022-08-16T05:41:44.613Z,56.24
2022-08-16T05:44:23.415Z,56.36
2022-08-16T05:46:57.700Z,56.26
2022-08-16T05:49:38.219Z,56.11
2022-08-16T05:52:11.495Z,56.23
2022-08-16T05:54:46.568Z,56.00
2022-08-16T05:57:14.471Z,56.26
2022-08-16T05:59:41.812Z,56.19
2022-08-16T06:02:08.493Z,55.71
2022-08-16T06:04:37.550Z,56.13
2022-08-16T06:07:08.743Z,55.67
2022-08-16T06:09:43.324Z,55.76
2022-08-16T06:12:27.005Z,55.71
2022-08-16T06:15:07.732Z,55.58
2022-08-16T06:17:42.609Z,55.47
2022-08-16T06:20:23.167Z,55.28
2022-08-16T06:22:57.784Z,54.95
2022-08-16T06:25:35.816Z,55.59
2022-08-16T06:28:08.619Z,55.69
2022-08-16T06:30:43.954Z,55.72
2022-08-16T06:33:22.326Z,55.78
2022-08-16T06:35:50.807Z,55.67
2022-08-16T06:38:33.413Z,55.91
2022-08-16T06:41:04.021Z,55.54
2022-08-16T06:43:31.153Z,55.43
2022-08-16T06:45:59.944Z,55.56
2022-08-16T06:48:32.674Z,54.89
2022-08-16T06:51:09.104Z,54.62
2022-08-16T06:53:36.729Z,54.48
2022-08-16T06:56:14.536Z,54.60
2022-08-16T06:58:49.769Z,54.78
2022-08-16T07:01:17.624Z,54.40
2022-08-16T07:03:54.922Z,54.56
2022-08-16T07:06:26.506Z,54.40
2022-08-16T07:08:54.135Z,54.01
2022-08-16T07:11:20.876Z,54.25
2022-08-16T07:14:26.274Z,54.52
2022-08-16T07:16:58.104Z,54.40
2022-08-16T07:20:01.684Z,54.34
2022-08-16T07:22:37.834Z,54.08
2022-08-16T07:24:59.440Z,53.95
2022-08-16T07:27:26.015Z,54.36
2022-08-16T07:29:55.624Z,54.26
2022-08-16T07:32:29.234Z,54.36
2022-08-16T07:34:56.327Z,54.73
2022-08-16T07:37:23.256Z,54.93
2022-08-16T07:39:50.785Z,54.97
2022-08-16T07:42:25.838Z,55.26
2022-08-16T07:44:55.359Z,56.02
2022-08-16T07:47:24.712Z,56.19
2022-08-16T07:49:59.418Z,56.36
2022-08-16T07:52:29.816Z,56.56
2022-08-16T07:54:57.609Z,57.38
2022-08-16T07:57:24.670Z,57.67
2022-08-16T07:59:51.457Z,57.87
2022-08-16T08:02:19.762Z,58.03
2022-08-16T08:04:48.095Z,58.33
2022-08-16T08:07:16.194Z,58.45
2022-08-16T08:09:43.882Z,58.73
2022-08-16T08:12:31.963Z,58.47
2022-08-16T08:14:58.422Z,58.59
2022-08-16T08:17:25.259Z,58.85
2022-08-16T08:20:12.329Z,59.46
2022-08-16T08:22:39.441Z,59.68
2022-08-16T08:25:07.323Z,59.52
2022-08-16T08:27:35.132Z,59.86
2022-08-16T08:30:49.238Z,59.70
2022-08-16T08:32:58.022Z,59.71
2022-08-16T08:35:28.391Z,59.70
2022-08-16T08:37:56.497Z,59.64
2022-08-16T08:40:27.410Z,59.43
2022-08-16T08:43:00.623Z,59.67
2022-08-16T08:45:53.654Z,59.29
2022-08-16T08:48:33.863Z,59.32
2022-08-16T08:51:05.582Z,59.13
2022-08-16T08:53:36.211Z,59.39
2022-08-16T08:56:23.123Z,59.27
2022-08-16T08:58:54.950Z,59.58
2022-08-16T09:01:36.460Z,60.07
2022-08-16T09:04:09.401Z,60.27
2022-08-16T09:06:43.744Z,60.47
2022-08-16T09:09:16.536Z,60.34
2022-08-16T09:11:47.311Z,60.41
2022-08-16T09:14:23.868Z,60.49
2022-08-16T09:17:02.292Z,60.46
2022-08-16T09:19:32.003Z,59.87
2022-08-16T09:22:00.326Z,59.96
2022-08-16T09:24:46.955Z,60.04
2022-08-16T09:27:13.447Z,60.27
2022-08-16T09:29:44.378Z,60.47
2022-08-16T09:32:12.326Z,60.58
2022-08-16T09:34:38.941Z,60.69
2022-08-16T09:37:17.739Z,61.10
2022-08-16T09:39:50.098Z,60.98
2022-08-16T09:42:19.062Z,61.27
2022-08-16T09:45:11.226Z,61.66
2022-08-16T09:47:56.940Z,61.88
2022-08-16T09:50:22.717Z,61.59
2022-08-16T09:52:50.021Z,61.48
2022-08-16T09:55:16.712Z,61.35
2022-08-16T09:57:43.450Z,61.13
2022-08-16T10:00:44.809Z,60.64
2022-08-16T10:03:06.297Z,60.88
2022-08-16T10:05:37.896Z,60.84
2022-08-16T10:08:26.088Z,60.77
2022-08-16T10:11:10.960Z,60.87
2022-08-16T10:13:39.599Z,60.89
2022-08-16T10:18:48.286Z,61.81
2022-08-16T10:21:25.677Z,61.75
2022-08-16T10:23:56.145Z,61.61
2022-08-16T10:27:17.213Z,61.90
2022-08-16T10:29:13.655Z,61.45
2022-08-16T10:31:53.461Z,61.05
2022-08-16T10:34:31.773Z,61.01
2022-08-16T10:37:00.750Z,60.64
2022-08-16T10:39:40.854Z,60.33
2022-08-16T10:42:10.296Z,60.36
2022-08-16T10:44:39.846Z,60.42
2022-08-16T10:47:09.985Z,60.30
2022-08-16T10:49:39.270Z,59.63
2022-08-16T10:52:18.838Z,59.24
2022-08-16T10:57:33.008Z,59.35
2022-08-16T10:59:59.979Z,59.17
2022-08-16T11:02:58.779Z,58.94
2022-08-16T11:05:16.356Z,58.92
2022-08-16T11:07:52.382Z,58.65
2022-08-16T11:19:05.766Z,58.59
2022-08-16T11:22:39.691Z,58.59
2022-08-16T11:24:41.392Z,58.17
2022-08-16T11:27:23.301Z,57.96
2022-08-16T11:29:54.831Z,57.36
2022-08-16T11:32:22.675Z,57.66
2022-08-16T11:35:15.702Z,57.46
2022-08-16T11:40:40.867Z,57.04
2022-08-16T11:43:10.944Z,56.58
2022-08-16T11:45:37.720Z,56.76
2022-08-16T11:48:05.839Z,56.33
2022-08-16T11:50:33.806Z,55.70
2022-08-16T11:53:02.475Z,56.00
2022-08-16T11:55:31.227Z,55.89
2022-08-16T11:57:57.839Z,56.57
2022-08-16T12:00:33.539Z,56.29
2022-08-16T12:03:14.952Z,56.52
2022-08-16T12:05:43.965Z,56.77
2022-08-16T12:08:11.106Z,56.44
2022-08-16T12:10:40.700Z,56.57
2022-08-16T12:13:10.548Z,56.29
2022-08-16T12:15:37.204Z,56.40
2022-08-16T12:18:04.676Z,56.06
2022-08-16T12:20:35.663Z,56.06
2022-08-16T12:23:02.673Z,56.07
2022-08-16T12:25:32.094Z,56.04
2022-08-16T12:27:59.035Z,55.85
2022-08-16T12:30:33.673Z,56.36
2022-08-16T12:33:05.510Z,56.74
2022-08-16T12:35:38.247Z,57.09
2022-08-16T12:38:38.169Z,56.90
2022-08-16T12:40:56.985Z,57.29
2022-08-16T12:43:24.283Z,56.86
2022-08-16T12:45:53.155Z,56.66
2022-08-16T12:48:42.389Z,56.42
2022-08-16T12:51:19.681Z,56.20
2022-08-16T12:53:47.247Z,56.15
2022-08-16T12:56:14.252Z,56.29
2022-08-16T12:58:48.614Z,56.54
2022-08-16T13:01:19.530Z,56.40
2022-08-16T13:03:50.212Z,56.44
2022-08-16T13:06:29.883Z,56.54
2022-08-16T13:09:02.452Z,56.58
2022-08-16T13:11:35.614Z,56.90
2022-08-16T13:14:05.286Z,56.73
2022-08-16T13:16:31.965Z,56.84
2022-08-16T13:19:00.752Z,57.01
2022-08-16T13:21:27.310Z,57.17
2022-08-16T13:23:55.440Z,57.06
2022-08-16T13:26:23.753Z,57.02
2022-08-16T13:28:50.347Z,56.83
2022-08-16T13:31:17.104Z,56.63
2022-08-16T13:33:43.924Z,56.49
2022-08-16T13:36:21.254Z,56.29
2022-08-16T13:38:59.568Z,55.93
2022-08-16T13:41:30.261Z,55.59
2022-08-16T13:43:59.294Z,55.50
2022-08-16T13:46:26.534Z,55.64
2022-08-16T13:48:53.065Z,55.25
2022-08-16T13:51:20.690Z,55.91
2022-08-16T13:53:54.572Z,55.64
2022-08-16T13:56:37.727Z,55.83
2022-08-16T13:59:19.143Z,55.83
2022-08-16T14:01:55.389Z,55.47
2022-08-16T14:04:26.532Z,55.72
2022-08-16T14:06:53.281Z,55.79
2022-08-16T14:09:21.421Z,55.83
2022-08-16T14:11:49.572Z,55.81
2022-08-16T14:14:28.840Z,55.87
2022-08-16T14:17:01.022Z,56.24
2022-08-16T14:19:29.430Z,56.26
2022-08-16T14:22:15.491Z,56.10
2022-08-16T14:24:47.038Z,55.93
2022-08-16T14:27:15.722Z,55.89
2022-08-16T14:29:43.560Z,56.15
2022-08-16T14:32:13.099Z,56.22
2022-08-16T14:34:58.557Z,56.23
2022-08-16T14:37:25.522Z,56.43
2022-08-16T14:39:54.887Z,56.48
2022-08-16T14:42:23.235Z,56.32
2022-08-16T14:44:50.526Z,56.37
2022-08-16T14:47:17.439Z,56.09
2022-08-16T14:49:44.131Z,56.48
2022-08-16T14:52:20.344Z,56.82
2022-08-16T14:55:02.238Z,56.99
2022-08-16T14:57:28.918Z,57.10
2022-08-16T14:59:55.430Z,57.14
2022-08-16T15:02:34.474Z,57.27
2022-08-16T15:05:04.359Z,57.00
2022-08-16T15:07:35.024Z,57.17
2022-08-16T15:10:03.439Z,57.42
2022-08-16T15:12:33.601Z,57.23
2022-08-16T15:15:04.597Z,57.06
2022-08-16T15:17:40.696Z,56.41
2022-08-16T15:20:08.719Z,56.44
2022-08-16T15:22:39.273Z,56.21
2022-08-16T15:25:09.754Z,56.00
2022-08-16T15:27:36.779Z,55.68
2022-08-16T15:30:56.921Z,55.58
2022-08-16T15:32:57.257Z,55.50
2022-08-16T15:35:24.387Z,55.65
2022-08-16T15:37:54.385Z,55.90
2022-08-16T15:40:32.305Z,56.78
2022-08-16T15:43:02.571Z,57.08
2022-08-16T15:45:47.837Z,57.59
2022-08-16T15:48:28.479Z,57.77
2022-08-16T15:50:57.862Z,57.89
2022-08-16T15:53:27.344Z,57.92
2022-08-16T15:55:56.649Z,57.67
2022-08-16T15:58:35.167Z,57.34
2022-08-16T16:01:06.868Z,56.54
2022-08-16T16:03:34.690Z,56.38
2022-08-16T16:06:03.088Z,56.41
2022-08-16T16:08:35.442Z,56.38
2022-08-16T16:11:07.013Z,56.77
2022-08-16T16:13:34.695Z,56.80
2022-08-16T16:16:03.504Z,56.91
2022-08-16T16:18:34.353Z,56.95
2022-08-16T16:21:06.152Z,56.70
2022-08-16T16:23:41.040Z,56.71
2022-08-16T16:26:12.581Z,56.78
2022-08-16T16:29:05.738Z,57.10
2022-08-16T16:31:27.256Z,57.33
2022-08-16T16:33:56.968Z,57.25
2022-08-16T16:36:28.720Z,57.46
2022-08-16T16:38:56.490Z,56.97
2022-08-16T16:41:26.533Z,56.97
2022-08-16T16:43:54.082Z,56.88
2022-08-16T16:46:40.600Z,56.76
2022-08-16T16:49:11.548Z,57.34
2022-08-16T16:51:40.857Z,57.64
2022-08-16T16:54:09.315Z,57.70
2022-08-16T16:56:39.363Z,57.55
2022-08-16T16:59:13.594Z,57.82
2022-08-16T17:01:59.562Z,57.76
2022-08-16T17:04:32.320Z,57.71
2022-08-16T17:07:01.157Z,58.00
2022-08-16T17:09:27.919Z,57.94
2022-08-16T17:11:55.893Z,57.78
2022-08-16T17:14:33.709Z,57.73
2022-08-16T17:17:04.203Z,58.15
2022-08-16T17:19:31.620Z,58.08
2022-08-16T17:22:01.090Z,57.97
2022-08-16T17:24:32.002Z,57.76
2022-08-16T17:27:08.261Z,58.00
2022-08-16T17:29:35.461Z,58.50
2022-08-16T17:32:46.874Z,58.70
2022-08-16T17:35:00.626Z,58.65
2022-08-16T17:37:42.501Z,58.79
2022-08-16T17:40:30.187Z,58.98
2022-08-16T17:43:01.288Z,58.83
2022-08-16T17:45:28.365Z,58.88
2022-08-16T17:47:54.933Z,58.86
2022-08-16T17:50:22.808Z,59.10
2022-08-16T17:52:53.635Z,59.20
2022-08-16T17:55:28.607Z,58.92
2022-08-16T17:57:55.201Z,58.34
2022-08-16T18:00:23.254Z,58.13
2022-08-16T18:02:51.792Z,58.34
2022-08-16T18:05:20.300Z,58.64
2022-08-16T18:07:47.415Z,59.10
2022-08-16T18:10:32.711Z,59.33
2022-08-16T18:13:01.021Z,59.52
2022-08-16T18:15:28.211Z,59.60
2022-08-16T18:17:54.936Z,59.67
2022-08-16T18:20:41.351Z,59.73
2022-08-16T18:23:15.112Z,59.87
2022-08-16T18:25:47.000Z,60.06
2022-08-16T18:28:14.615Z,60.19
2022-08-16T18:30:41.500Z,60.05
2022-08-16T18:33:08.153Z,60.04
2022-08-16T18:35:34.960Z,60.01
2022-08-16T18:38:01.775Z,59.96
2022-08-16T18:40:28.822Z,59.92
2022-08-16T18:43:06.256Z,60.09
2022-08-16T18:45:36.957Z,60.13
2022-08-16T18:48:04.775Z,60.19
2022-08-16T18:50:58.482Z,60.08
2022-08-16T18:53:20.155Z,60.09
2022-08-16T18:55:48.282Z,59.95
2022-08-16T18:58:15.513Z,59.58
2022-08-16T19:00:55.944Z,59.70
2022-08-16T19:03:28.237Z,59.98
2022-08-16T19:05:56.532Z,59.82
2022-08-16T19:08:23.272Z,59.29
2022-08-16T19:10:50.984Z,59.21
2022-08-16T19:13:22.988Z,59.31
2022-08-16T19:15:52.007Z,59.33
2022-08-16T19:18:19.451Z,59.29
2022-08-16T19:20:47.187Z,59.18
2022-08-16T19:23:17.752Z,59.17
2022-08-16T19:25:49.695Z,59.05
2022-08-16T19:28:57.697Z,59.23
2022-08-16T19:31:20.613Z,59.36
2022-08-16T19:33:53.754Z,59.50
2022-08-16T19:36:30.897Z,59.30
2022-08-16T19:38:58.855Z,59.50
2022-08-16T19:41:31.753Z,59.42
2022-08-16T19:43:58.233Z,59.56
2022-08-16T19:46:24.897Z,59.58
2022-08-16T19:48:51.934Z,59.33
2022-08-16T19:51:18.477Z,59.33
2022-08-16T19:53:45.059Z,59.37
2022-08-16T19:56:11.832Z,59.53
2022-08-16T19:58:50.993Z,59.68
2022-08-16T20:01:25.548Z,59.70
2022-08-16T20:03:52.092Z,59.52
2022-08-16T20:06:37.631Z,59.95
2022-08-16T20:09:05.165Z,59.81
2022-08-16T20:11:31.750Z,60.04
2022-08-16T20:13:59.380Z,59.85
2022-08-16T20:16:26.093Z,59.76
2022-08-16T20:18:52.643Z,59.85
2022-08-16T20:21:19.493Z,59.83
2022-08-16T20:23:46.233Z,60.08
2022-08-16T20:26:12.749Z,60.12
2022-08-16T20:28:53.947Z,60.44
2022-08-16T20:31:22.998Z,60.74
2022-08-16T20:33:50.450Z,60.78
2022-08-16T20:36:17.203Z,60.60
2022-08-16T20:38:46.877Z,60.76
2022-08-16T20:41:13.839Z,60.12
2022-08-16T20:43:40.383Z,60.22
2022-08-16T20:46:06.986Z,59.94
2022-08-16T20:48:33.516Z,60.06
2022-08-16T20:51:00.053Z,59.97
2022-08-16T20:53:26.619Z,59.83
2022-08-16T20:55:53.124Z,59.78
2022-08-16T20:58:19.672Z,59.75
2022-08-16T21:00:47.256Z,60.12
2022-08-16T21:03:14.120Z,60.03
2022-08-16T21:05:41.273Z,60.30
2022-08-16T21:08:26.858Z,60.28
2022-08-16T21:10:56.303Z,60.42
2022-08-16T21:13:25.338Z,60.35
2022-08-16T21:15:52.155Z,60.72
2022-08-16T21:18:18.658Z,60.57
2022-08-16T21:20:45.168Z,60.76
2022-08-16T21:23:11.732Z,60.92
2022-08-16T21:25:57.708Z,60.85
2022-08-16T21:28:41.999Z,60.99
2022-08-16T21:31:14.310Z,61.33
2022-08-16T21:33:40.945Z,61.37
2022-08-16T21:36:07.888Z,61.71
2022-08-16T21:38:34.783Z,61.92
2022-08-16T21:41:02.879Z,61.93
2022-08-16T21:43:32.682Z,62.05
2022-08-16T21:46:01.470Z,61.86
2022-08-16T21:48:35.119Z,61.60
2022-08-16T21:51:07.824Z,62.07
2022-08-16T21:53:35.118Z,61.71
2022-08-16T21:56:02.113Z,61.74
2022-08-16T21:58:29.422Z,61.90
2022-08-16T22:00:56.314Z,62.03
2022-08-16T22:03:23.525Z,61.83
2022-08-16T22:06:12.242Z,61.68
2022-08-16T22:08:45.615Z,61.67
2022-08-16T22:11:22.754Z,61.79
2022-08-16T22:13:57.885Z,61.49
2022-08-16T22:16:34.457Z,61.68
2022-08-16T22:19:01.393Z,61.98
2022-08-16T22:21:28.738Z,62.05
2022-08-16T22:23:57.394Z,62.09
2022-08-16T22:26:30.706Z,61.79
2022-08-16T22:28:59.413Z,61.62
2022-08-16T22:31:26.103Z,61.37
2022-08-16T22:33:52.635Z,61.70
2022-08-16T22:36:19.228Z,62.08
2022-08-16T22:38:55.981Z,61.86
2022-08-16T22:41:25.077Z,61.91
2022-08-16T22:43:52.341Z,62.00
2022-08-16T22:46:19.604Z,62.15
2022-08-16T22:48:46.633Z,61.76
2022-08-16T22:51:13.487Z,61.87
2022-08-16T22:53:40.034Z,61.52
2022-08-16T22:56:06.797Z,61.72
2022-08-16T22:58:36.317Z,61.96
2022-08-16T23:01:07.873Z,61.86
2022-08-16T23:03:34.747Z,62.08
2022-08-16T23:06:01.327Z,62.21
2022-08-16T23:08:39.168Z,62.04
2022-08-16T23:11:12.169Z,61.55
2022-08-16T23:13:52.795Z,61.89
2022-08-16T23:16:32.507Z,61.62
2022-08-16T23:19:00.564Z,62.00
2022-08-16T23:21:27.805Z,62.04
2022-08-16T23:23:54.331Z,62.30
2022-08-16T23:26:44.025Z,62.02
2022-08-16T23:29:07.542Z,62.07
2022-08-16T23:31:49.139Z,62.07
2022-08-16T23:34:15.954Z,62.26
2022-08-16T23:36:42.518Z,62.11
2022-08-16T23:39:09.058Z,62.13
2022-08-16T23:41:35.628Z,62.15
2022-08-16T23:44:02.147Z,62.05
2022-08-16T23:46:49.356Z,62.38
2022-08-16T23:50:02.333Z,61.91
2022-08-16T23:52:09.676Z,61.75
2022-08-16T23:54:36.423Z,62.16
2022-08-16T23:57:05.224Z,61.86
2022-08-16T23:59:34.467Z,61.67
